SAS363 EHAM-ENTO
Flight info
| Callsign | SAS363 |
|---|---|
| Flight time | N/A |
| Altitude | 35000 |
| Route | ANDIK Z733 KONOM DCT AMADA DCT ULMUG |
| Aircraft | A320/M-SDE3FGHIRWY/LB1 |
Departure
| Time | 2026-05-06 16:09 |
|---|---|
| Airport | Amsterdam Airport Schiphol (EHAM) |
Arrival
| Time | N/A |
|---|---|
| Airport | Sandefjord Airport, Torp (ENTO) |
| Time | Latitude | Longitude | Altitude | Speed | Heading |
|---|---|---|---|---|---|
| 2026-05-06 15:05 | 52.31286 | 4.75610 | -2 ft | 0 kts | 87° |
| 2026-05-06 15:07 | 52.31285 | 4.75583 | -2 ft | 0 kts | 87° |
| 2026-05-06 15:07 | 52.31286 | 4.75610 | -2 ft | 0 kts | 87° |
| 2026-05-06 15:08 | 52.31286 | 4.75621 | -2 ft | 0 kts | 87° |
| 2026-05-06 15:08 | 52.31286 | 4.75610 | -2 ft | 0 kts | 87° |
| 2026-05-06 15:24 | 52.31286 | 4.75609 | -2 ft | 0 kts | 87° |
| 2026-05-06 15:54 | 52.31285 | 4.75591 | -2 ft | 4 kts | 85° |
| 2026-05-06 15:54 | 52.31282 | 4.75547 | -2 ft | 4 kts | 77° |
| 2026-05-06 15:55 | 52.31274 | 4.75506 | -2 ft | 4 kts | 54° |
| 2026-05-06 15:55 | 52.31257 | 4.75485 | -2 ft | 1 kts | 357° |
| 2026-05-06 15:55 | 52.31256 | 4.75485 | -2 ft | 0 kts | 357° |
| 2026-05-06 16:02 | 52.31261 | 4.75484 | -2 ft | 2 kts | 357° |
| 2026-05-06 16:03 | 52.31289 | 4.75482 | -2 ft | 6 kts | 357° |
| 2026-05-06 16:03 | 52.31348 | 4.75477 | -2 ft | 11 kts | 357° |
| 2026-05-06 16:03 | 52.31421 | 4.75425 | -2 ft | 14 kts | 294° |
| 2026-05-06 16:03 | 52.31421 | 4.75251 | -2 ft | 17 kts | 267° |
| 2026-05-06 16:04 | 52.31415 | 4.75047 | -2 ft | 19 kts | 267° |
| 2026-05-06 16:04 | 52.31408 | 4.74818 | -2 ft | 21 kts | 266° |
| 2026-05-06 16:04 | 52.31400 | 4.74564 | -2 ft | 23 kts | 267° |
| 2026-05-06 16:04 | 52.31383 | 4.74323 | -2 ft | 17 kts | 245° |
| 2026-05-06 16:05 | 52.31277 | 4.74268 | -2 ft | 18 kts | 184° |
| 2026-05-06 16:05 | 52.31146 | 4.74257 | -2 ft | 20 kts | 182° |
| 2026-05-06 16:05 | 52.31000 | 4.74245 | -3 ft | 21 kts | 185° |
| 2026-05-06 16:05 | 52.30848 | 4.74227 | -3 ft | 19 kts | 184° |
| 2026-05-06 16:06 | 52.30706 | 4.74211 | -2 ft | 21 kts | 184° |
| 2026-05-06 16:06 | 52.30598 | 4.74179 | -2 ft | 14 kts | 212° |
| 2026-05-06 16:06 | 52.30591 | 4.74064 | -2 ft | 10 kts | 272° |
| 2026-05-06 16:06 | 52.30593 | 4.74012 | -2 ft | 2 kts | 274° |
| 2026-05-06 16:07 | 52.30593 | 4.74001 | -2 ft | 2 kts | 274° |
| 2026-05-06 16:07 | 52.30596 | 4.73960 | -2 ft | 4 kts | 285° |
| 2026-05-06 16:07 | 52.30600 | 4.73950 | -2 ft | 0 kts | 298° |
| 2026-05-06 16:08 | 52.30600 | 4.73949 | -2 ft | 1 kts | 299° |
| 2026-05-06 16:08 | 52.30661 | 4.73874 | -3 ft | 26 kts | 330° |
| 2026-05-06 16:09 | 52.30935 | 4.73794 | -2 ft | 65 kts | 5° |
| 2026-05-06 16:09 | 52.31591 | 4.73860 | -4 ft | 121 kts | 4° |
| 2026-05-06 16:09 | 52.32590 | 4.73939 | 56 ft | 160 kts | 7° |
| 2026-05-06 16:09 | 52.33732 | 4.74049 | 632 ft | 165 kts | 11° |
| 2026-05-06 16:10 | 52.34797 | 4.74676 | 1377 ft | 165 kts | 25° |
| 2026-05-06 16:10 | 52.35907 | 4.75492 | 1788 ft | 184 kts | 25° |
| 2026-05-06 16:10 | 52.37094 | 4.76362 | 2491 ft | 188 kts | 25° |
| 2026-05-06 16:10 | 52.38199 | 4.77501 | 3240 ft | 190 kts | 45° |
| 2026-05-06 16:11 | 52.39129 | 4.79064 | 4004 ft | 193 kts | 45° |
| 2026-05-06 16:11 | 52.40078 | 4.80652 | 4765 ft | 197 kts | 45° |
| 2026-05-06 16:11 | 52.41049 | 4.82272 | 5518 ft | 201 kts | 45° |
| 2026-05-06 16:11 | 52.42049 | 4.83940 | 5841 ft | 206 kts | 45° |
| 2026-05-06 16:12 | 52.43148 | 4.85432 | 5908 ft | 206 kts | 29° |
| 2026-05-06 16:12 | 52.44501 | 4.86174 | 6016 ft | 209 kts | 7° |
| 2026-05-06 16:12 | 52.46030 | 4.86149 | 6424 ft | 232 kts | 358° |
| 2026-05-06 16:12 | 52.47729 | 4.85992 | 6806 ft | 256 kts | 358° |
| 2026-05-06 16:13 | 52.49556 | 4.85817 | 7469 ft | 268 kts | 358° |
| 2026-05-06 16:13 | 52.51435 | 4.85634 | 8292 ft | 273 kts | 357° |
| 2026-05-06 16:13 | 52.53332 | 4.85868 | 9089 ft | 278 kts | 17° |
| 2026-05-06 16:13 | 52.55007 | 4.87456 | 9867 ft | 284 kts | 44° |
| 2026-05-06 16:14 | 52.56318 | 4.89991 | 10315 ft | 302 kts | 50° |
| 2026-05-06 16:14 | 52.57668 | 4.92799 | 10601 ft | 322 kts | 51° |
| 2026-05-06 16:14 | 52.59033 | 4.95689 | 11595 ft | 311 kts | 51° |
| 2026-05-06 16:14 | 52.60367 | 4.98512 | 12320 ft | 321 kts | 51° |
| 2026-05-06 16:15 | 52.61767 | 5.01454 | 12596 ft | 339 kts | 50° |
| 2026-05-06 16:15 | 52.63241 | 5.04541 | 13187 ft | 346 kts | 50° |
| 2026-05-06 16:15 | 52.64741 | 5.07687 | 13845 ft | 352 kts | 50° |
| 2026-05-06 16:15 | 52.66266 | 5.10879 | 14452 ft | 356 kts | 50° |
| 2026-05-06 16:16 | 52.67805 | 5.14105 | 15072 ft | 360 kts | 50° |
| 2026-05-06 16:16 | 52.69360 | 5.17377 | 15687 ft | 364 kts | 51° |
| 2026-05-06 16:16 | 52.70928 | 5.20684 | 16300 ft | 368 kts | 50° |
| 2026-05-06 16:16 | 52.72524 | 5.24006 | 16910 ft | 371 kts | 47° |
| 2026-05-06 16:17 | 52.74527 | 5.26648 | 17495 ft | 371 kts | 24° |
| 2026-05-06 16:17 | 52.76993 | 5.27852 | 18091 ft | 371 kts | 7° |
| 2026-05-06 16:17 | 52.79559 | 5.28505 | 18638 ft | 375 kts | 6° |
| 2026-05-06 16:17 | 52.82151 | 5.29133 | 19180 ft | 379 kts | 6° |
| 2026-05-06 16:18 | 52.84772 | 5.29755 | 19733 ft | 383 kts | 6° |
| 2026-05-06 16:18 | 52.87422 | 5.30385 | 20296 ft | 386 kts | 6° |
| 2026-05-06 16:18 | 52.90094 | 5.31032 | 20828 ft | 390 kts | 6° |
| 2026-05-06 16:18 | 52.92795 | 5.31698 | 21357 ft | 394 kts | 6° |
| 2026-05-06 16:19 | 52.95515 | 5.32375 | 21877 ft | 397 kts | 6° |
| 2026-05-06 16:19 | 52.98264 | 5.33059 | 22408 ft | 401 kts | 6° |
| 2026-05-06 16:19 | 53.01036 | 5.33753 | 22942 ft | 405 kts | 6° |
| 2026-05-06 16:19 | 53.03837 | 5.34455 | 23471 ft | 408 kts | 6° |
| 2026-05-06 16:20 | 53.06655 | 5.35161 | 23913 ft | 412 kts | 6° |
| 2026-05-06 16:20 | 53.09497 | 5.35874 | 24358 ft | 415 kts | 6° |
| 2026-05-06 16:20 | 53.12362 | 5.36596 | 24778 ft | 418 kts | 6° |
| 2026-05-06 16:20 | 53.15248 | 5.37323 | 25202 ft | 421 kts | 6° |
| 2026-05-06 16:21 | 53.18151 | 5.38056 | 25613 ft | 424 kts | 6° |
| 2026-05-06 16:21 | 53.21080 | 5.38794 | 26029 ft | 426 kts | 6° |
| 2026-05-06 16:21 | 53.24023 | 5.39535 | 26425 ft | 429 kts | 6° |
| 2026-05-06 16:21 | 53.26985 | 5.40282 | 26825 ft | 432 kts | 6° |
| 2026-05-06 16:22 | 53.29928 | 5.41028 | 27207 ft | 435 kts | 6° |
| 2026-05-06 16:22 | 53.32928 | 5.41789 | 27588 ft | 437 kts | 6° |
| 2026-05-06 16:22 | 53.35948 | 5.42552 | 27962 ft | 440 kts | 6° |
| 2026-05-06 16:22 | 53.38987 | 5.43316 | 28330 ft | 443 kts | 6° |
| 2026-05-06 16:23 | 53.42050 | 5.44089 | 28692 ft | 446 kts | 6° |
| 2026-05-06 16:23 | 53.45128 | 5.44868 | 29055 ft | 449 kts | 6° |
| 2026-05-06 16:23 | 53.48228 | 5.45658 | 29409 ft | 452 kts | 6° |
| 2026-05-06 16:23 | 53.51346 | 5.46458 | 29771 ft | 455 kts | 6° |
| 2026-05-06 16:24 | 53.54485 | 5.47263 | 30107 ft | 458 kts | 6° |
| 2026-05-06 16:24 | 53.57648 | 5.48073 | 30414 ft | 460 kts | 6° |
| 2026-05-06 16:24 | 53.60822 | 5.48888 | 30723 ft | 463 kts | 6° |
| 2026-05-06 16:24 | 53.63983 | 5.49959 | 31016 ft | 467 kts | 16° |
| 2026-05-06 16:25 | 53.67065 | 5.51765 | 31358 ft | 469 kts | 18° |
| 2026-05-06 16:25 | 53.70133 | 5.53618 | 31801 ft | 468 kts | 18° |
| 2026-05-06 16:25 | 53.73184 | 5.55479 | 32236 ft | 467 kts | 18° |
| 2026-05-06 16:25 | 53.76236 | 5.57351 | 32671 ft | 466 kts | 18° |
| 2026-05-06 16:26 | 53.79285 | 5.59221 | 33113 ft | 465 kts | 18° |
| 2026-05-06 16:26 | 53.82327 | 5.61081 | 33560 ft | 464 kts | 18° |
| 2026-05-06 16:26 | 53.85360 | 5.62929 | 33991 ft | 463 kts | 18° |
| 2026-05-06 16:26 | 53.88393 | 5.64776 | 34356 ft | 463 kts | 18° |
| 2026-05-06 16:27 | 53.91420 | 5.66622 | 34681 ft | 462 kts | 18° |
| 2026-05-06 16:27 | 53.94443 | 5.68470 | 34918 ft | 463 kts | 18° |
| 2026-05-06 16:27 | 54.00473 | 5.72176 | 34970 ft | 459 kts | 18° |
| 2026-05-06 16:28 | 54.06467 | 5.75871 | 34973 ft | 458 kts | 18° |
| 2026-05-06 16:28 | 54.12453 | 5.79564 | 34971 ft | 457 kts | 18° |
| 2026-05-06 16:29 | 54.18433 | 5.83270 | 34970 ft | 457 kts | 18° |
| 2026-05-06 16:29 | 54.24414 | 5.86990 | 34977 ft | 457 kts | 18° |
| 2026-05-06 16:30 | 54.29384 | 5.90083 | 34986 ft | 457 kts | 18° |
| 2026-05-06 16:30 | 54.36333 | 5.94431 | 34989 ft | 458 kts | 18° |
| 2026-05-06 16:31 | 54.42310 | 5.98193 | 34989 ft | 458 kts | 18° |
| 2026-05-06 16:31 | 54.48290 | 6.01958 | 34999 ft | 458 kts | 18° |
| 2026-05-06 16:32 | 54.54271 | 6.05725 | 35001 ft | 458 kts | 18° |
| 2026-05-06 16:32 | 54.60246 | 6.09505 | 35006 ft | 457 kts | 18° |